LFBI/PIS METAR and TAF weather

Enter ICAO airport designator
Station Type Date Time Source
LFBI METAR 2022/01/29 10:30 UTC NOAA

LFBI 291030Z AUTO 19008KT 5000 BR OVC004/// 05/04 Q1038 TEMPO BKN015


Station Type Date Time Source
LFBI Decoded METAR 2022/01/29 10:30 UTC NOAA

Poitiers, France (LFBI) 46-35N 000-19E 120M
Jan 29, 2022 - 05:30 AM EST / 2022.01.29 1030 UTC
Wind: from the S (190 degrees) at 9 MPH (8 KT):0
Visibility: 3 mile(s):0
Sky conditions: overcast
Weather: mist
Temperature: 41 F (5 C)
Dew Point: 39 F (4 C)
Relative Humidity: 93%
Pressure (altimeter): 30.65 in. Hg (1038 hPa)
ob: LFBI 291030Z AUTO 19008KT 5000 BR OVC004/// 05/04 Q1038 TEMPO BKN015
cycle: 10

Station Type Date Time Source
LFBI TAF 2022/01/29 06:21 UTC NOAA

TAF LFBI 290500Z 2906/3006 08005KT 7000 OVC010
TEMPO 2906/2908 2500 BR OVC003
TEMPO 2908/2912 OVC004
TEMPO 2912/2921 BKN015
TEMPO 2921/3006 1200 BR OVC005 PROB40
TEMPO 3004/3006 -DZ OVC003

Example: see airport list